Time;durP1;ratioP1;P1;durP2;ratioP2;P2;SDS_P1;SDS_P2;PMS_P1;PMS_P2;Temp;Humidity;BMP_temperature;BMP_pressure;BME280_temperature;BME280_humidity;BME280_pressure;Samples;Min_cycle;Max_cycle;Signal;HPM_P1;HPM_P2
2022/03/21 00:01:41;;;;;;;12.10;4.05;;;;;;;3.69;100.00;100898.78;7392852;19;20824;-56
2022/03/21 00:04:32;;;;;;;3.88;2.17;;;;;;;3.65;100.00;100898.03;7391482;19;20724;-56
2022/03/21 00:07:27;;;;;;;4.50;3.00;;;;;;;3.52;100.00;100896.94;7391933;19;20033;-56
2022/03/21 00:17:03;;;;;;;19.65;3.80;;;;;;;3.37;100.00;100889.94;7389205;19;20030;-56
2022/03/21 00:19:29;;;;;;;15.13;4.35;;;;;;;3.34;100.00;100893.47;7390431;19;20292;-56
2022/03/21 00:21:54;;;;;;;7.40;4.90;;;;;;;3.27;100.00;100888.03;7395469;19;20363;-56
2022/03/21 00:24:20;;;;;;;9.88;4.57;;;;;;;3.21;100.00;100886.88;7394288;19;20010;-55
2022/03/21 00:26:45;;;;;;;5.63;4.13;;;;;;;3.27;100.00;100888.78;7397344;19;20070;-56
2022/03/21 00:29:24;;;;;;;11.55;7.35;;;;;;;3.28;100.00;100895.09;7399383;19;20476;-56
2022/03/21 00:36:08;;;;;;;9.40;3.83;;;;;;;3.13;100.00;100890.84;7398881;19;20103;-56
2022/03/21 00:39:01;;;;;;;15.30;5.78;;;;;;;3.04;100.00;100889.31;7397129;19;20014;-56
2022/03/21 00:41:34;;;;;;;10.85;4.15;;;;;;;3.00;100.00;100888.53;7401167;19;20374;-56
2022/03/21 00:44:24;;;;;;;12.02;3.90;;;;;;;2.93;100.00;100887.78;7399789;19;20406;-56
2022/03/21 00:47:18;;;;;;;12.30;4.82;;;;;;;2.89;100.00;100887.78;7400755;19;20412;-56
2022/03/21 00:50:10;;;;;;;8.13;4.30;;;;;;;2.86;100.00;100888.56;7399063;19;20089;-57
2022/03/21 00:53:00;;;;;;;8.90;3.95;;;;;;;2.87;100.00;100883.88;7399213;19;20348;-56
2022/03/21 00:55:50;;;;;;;9.65;3.05;;;;;;;2.85;100.00;100887.03;7403993;19;20331;-56
2022/03/21 00:58:35;;;;;;;6.43;4.35;;;;;;;2.88;100.00;100885.44;7397010;19;20018;-56
2022/03/21 01:01:12;;;;;;;13.40;4.60;;;;;;;2.86;100.00;100880.31;7399352;19;20355;-56
2022/03/21 01:03:50;;;;;;;11.60;3.58;;;;;;;2.85;100.00;100887.03;7399368;19;20387;-56
2022/03/21 01:06:35;;;;;;;2.92;2.72;;;;;;;2.84;100.00;100888.19;7397694;19;20010;-56
2022/03/21 01:16:07;;;;;;;3.33;3.08;;;;;;;2.63;100.00;100876.47;7395634;19;20031;-55
2022/03/21 01:18:32;;;;;;;5.50;2.53;;;;;;;2.64;100.00;100876.06;7398200;19;20023;-55
2022/03/21 01:20:57;;;;;;;29.15;6.47;;;;;;;2.67;100.00;100878.03;7399155;19;20014;-56
2022/03/21 01:23:23;;;;;;;6.55;4.43;;;;;;;2.68;100.00;100881.56;7399231;19;20018;-55
2022/03/21 01:25:49;;;;;;;18.00;3.58;;;;;;;2.64;100.00;100878.06;7398403;19;20023;-56
2022/03/21 01:28:14;;;;;;;11.70;6.15;;;;;;;2.59;100.00;100879.25;7398728;19;20014;-56
2022/03/21 01:34:59;;;;;;;16.42;3.78;;;;;;;2.53;100.00;100875.34;7397030;19;20045;-56
2022/03/21 01:38:36;;;;;;;14.13;4.38;;;;;;;2.49;100.00;100891.03;7394108;19;20021;-57
2022/03/21 01:57:44;;;;;;;;;;;;;;;;;;;;;
2022/03/21 02:27:34;;;;;;;4.88;3.33;;;;;;;2.20;100.00;100895.00;7402409;19;20033;-82
2022/03/21 02:30:44;;;;;;;6.75;4.78;;;;;;;2.19;100.00;100899.69;7400445;19;20025;-85
2022/03/21 02:45:33;;;;;;;;;;;;;;;;;;;;;
2022/03/21 02:48:33;;;;;;;3.40;3.00;;;;;;;2.19;100.00;100898.91;7401718;19;20022;-86
2022/03/21 03:06:48;;;;;;;;;;;;;;;;;;;;;
2022/03/21 03:09:38;;;;;;;;;;;;;;;;;;;;;
2022/03/21 03:16:51;;;;;;;;;;;;;;;;;;;;;
2022/03/21 03:24:02;;;;;;;15.25;4.72;;;;;;;1.92;100.00;100884.00;7400244;19;20551;-84
2022/03/21 03:26:56;;;;;;;13.90;3.45;;;;;;;1.94;100.00;100884.41;7394445;19;20460;-87
2022/03/21 03:29:21;;;;;;;9.77;4.63;;;;;;;1.95;100.00;100891.47;7395406;19;20019;-87
2022/03/21 03:31:48;;;;;;;10.70;4.07;;;;;;;1.94;100.00;100887.16;7397414;19;20017;-89
2022/03/21 03:34:14;;;;;;;6.10;4.80;;;;;;;1.93;100.00;100885.56;7394239;19;20070;-87
2022/03/21 03:36:39;;;;;;;17.95;5.32;;;;;;;1.90;100.00;100887.16;7395686;19;20011;-87
2022/03/21 03:39:05;;;;;;;11.13;4.35;;;;;;;1.88;100.00;100888.72;7396839;19;20010;-87
2022/03/21 03:41:31;;;;;;;14.60;5.00;;;;;;;1.86;100.00;100891.06;7399071;19;20497;-87
2022/03/21 03:43:57;;;;;;;3.25;2.95;;;;;;;1.84;100.00;100893.44;7396759;19;20007;-88
2022/03/21 03:46:22;;;;;;;6.30;4.05;;;;;;;1.81;100.00;100883.22;7393970;19;20250;-87
2022/03/21 03:48:49;;;;;;;11.27;4.80;;;;;;;1.75;100.00;100884.78;7395393;19;20034;-87
2022/03/21 03:51:16;;;;;;;8.70;4.47;;;;;;;1.79;100.00;100896.56;7396456;19;20021;-87
2022/03/21 03:53:42;;;;;;;5.35;4.03;;;;;;;1.79;100.00;100886.38;7396464;19;20015;-88
2022/03/21 03:56:08;;;;;;;10.32;2.97;;;;;;;1.81;100.00;100885.97;7396588;19;20492;-87
2022/03/21 03:58:35;;;;;;;6.72;4.25;;;;;;;1.82;100.00;100885.56;7396274;19;20333;-88
2022/03/21 04:01:04;;;;;;;5.43;3.10;;;;;;;1.83;100.00;100878.13;7393370;19;20026;-87
2022/03/21 04:03:46;;;;;;;7.50;4.45;;;;;;;1.81;100.00;100874.97;7390986;19;20018;-88
2022/03/21 04:06:20;;;;;;;21.27;3.97;;;;;;;1.83;100.00;100883.59;7393828;19;20038;-87
2022/03/21 04:08:46;;;;;;;4.22;2.88;;;;;;;1.80;100.00;100890.66;7396326;19;20470;-88
2022/03/21 04:11:12;;;;;;;7.18;4.45;;;;;;;1.78;100.00;100884.78;7396867;19;20015;-88
2022/03/21 04:13:39;;;;;;;5.55;4.00;;;;;;;1.74;100.00;100884.00;7396329;19;20019;-88
2022/03/21 04:16:05;;;;;;;7.30;3.60;;;;;;;1.67;100.00;100878.47;7395085;19;20349;-88
2022/03/21 04:18:31;;;;;;;5.57;4.50;;;;;;;1.71;100.00;100884.00;7395526;19;20021;-88
2022/03/21 04:20:56;;;;;;;5.07;4.20;;;;;;;1.70;100.00;100876.91;7395654;19;20070;-87
2022/03/21 04:23:22;;;;;;;4.35;3.60;;;;;;;1.66;100.00;100885.16;7394297;19;20018;-87
2022/03/21 04:25:48;;;;;;;5.43;4.38;;;;;;;1.62;100.00;100886.34;7395461;19;20029;-87
2022/03/21 04:28:15;;;;;;;23.70;5.35;;;;;;;1.61;100.00;100884.75;7395246;19;20079;-87
2022/03/21 04:30:41;;;;;;;12.50;4.35;;;;;;;1.57;100.00;100882.00;7396193;19;20014;-87
2022/03/21 04:33:12;;;;;;;8.90;2.97;;;;;;;1.51;100.00;100891.81;7393691;19;20038;-88
2022/03/21 04:35:38;;;;;;;8.70;4.35;;;;;;;1.46;100.00;100887.47;7393933;19;20085;-87
2022/03/21 04:38:13;;;;;;;8.25;4.47;;;;;;;1.49;100.00;100897.66;7392273;19;20018;-88
2022/03/21 04:40:44;;;;;;;6.90;4.28;;;;;;;1.47;100.00;100896.50;7394976;19;20477;-89
2022/03/21 04:43:10;;;;;;;6.75;4.50;;;;;;;1.44;100.00;100892.56;7393594;19;20011;-88
2022/03/21 04:45:36;;;;;;;4.13;3.83;;;;;;;1.45;100.00;100887.88;7395751;19;20041;-88
2022/03/21 04:48:05;;;;;;;7.03;3.42;;;;;;;1.44;100.00;100892.56;7395647;19;20007;-53
2022/03/21 04:50:32;;;;;;;15.93;4.32;;;;;;;1.45;100.00;100901.59;7390658;19;20038;-53
2022/03/21 04:52:59;;;;;;;7.32;4.97;;;;;;;1.43;100.00;100901.16;7394105;19;20007;-53
2022/03/21 04:55:26;;;;;;;7.68;4.30;;;;;;;1.40;100.00;100902.75;7397500;19;20014;-53
2022/03/21 04:57:52;;;;;;;4.72;4.30;;;;;;;1.39;100.00;100912.16;7390382;19;20450;-53
2022/03/21 05:00:18;;;;;;;6.65;3.50;;;;;;;1.36;100.00;100904.72;7392173;19;20015;-53
2022/03/21 05:02:43;;;;;;;12.32;5.85;;;;;;;1.36;100.00;100906.66;7390278;19;20019;-53
2022/03/21 05:05:09;;;;;;;4.97;2.50;;;;;;;1.36;100.00;100906.66;7393714;19;20015;-53
2022/03/21 05:07:40;;;;;;;12.13;5.22;;;;;;;1.32;100.00;100903.13;7393607;19;20015;-53
2022/03/21 05:10:06;;;;;;;15.63;4.47;;;;;;;1.26;100.00;100905.44;7392676;19;20035;-53
2022/03/21 05:12:36;;;;;;;18.20;7.22;;;;;;;1.16;100.00;100897.97;7397324;19;20078;-53
2022/03/21 05:15:04;;;;;;;4.72;4.25;;;;;;;1.11;100.00;100906.56;7399072;19;20095;-53
2022/03/21 05:17:30;;;;;;;9.07;5.10;;;;;;;1.11;100.00;100908.50;7398740;19;20046;-53
2022/03/21 05:19:59;;;;;;;15.27;5.75;;;;;;;1.11;100.00;100911.25;7401228;19;20031;-53
2022/03/21 05:22:25;;;;;;;7.43;5.47;;;;;;;1.11;100.00;100900.28;7401356;19;20022;-53
2022/03/21 05:31:36;;;;;;;11.68;5.30;;;;;;;1.17;100.00;100913.25;7402402;19;20078;-83
2022/03/21 05:41:01;;;;;;;3.50;2.97;;;;;;;1.01;100.00;100910.06;7399942;19;20376;-49
2022/03/21 05:43:32;;;;;;;;;;;;;;;1.01;100.00;100917.50;7399689;19;20014;-50
2022/03/21 05:46:03;;;;;;;7.10;5.28;;;;;;;0.99;100.00;100917.88;7397827;19;19929;-50
2022/03/21 05:51:35;;;;;;;6.65;4.28;;;;;;;0.99;100.00;100919.84;7397334;19;20017;-50
2022/03/21 05:54:10;;;;;;;15.30;4.57;;;;;;;0.99;100.00;100926.13;7398607;19;20021;-49
2022/03/21 05:56:43;;;;;;;4.57;4.28;;;;;;;1.01;100.00;100929.25;7397635;19;20011;-50
2022/03/21 06:01:55;;;;;;;2.60;1.77;;;;;;;1.05;100.00;100930.06;7399332;19;20022;-55
2022/03/21 06:04:23;;;;;;;20.00;7.05;;;;;;;1.04;100.00;100924.97;7397532;19;20019;-54
2022/03/21 06:06:53;;;;;;;7.50;6.78;;;;;;;1.00;100.00;100929.63;7394206;19;20019;-55
2022/03/21 06:09:20;;;;;;;16.33;5.53;;;;;;;1.00;100.00;100927.66;7398354;19;20047;-55
2022/03/21 06:11:48;;;;;;;6.63;5.00;;;;;;;1.00;100.00;100932.38;7400826;19;20014;-55
2022/03/21 06:14:22;;;;;;;6.30;5.35;;;;;;;1.01;100.00;100934.75;7396108;19;20022;-55
2022/03/21 06:16:50;;;;;;;6.80;4.20;;;;;;;1.02;100.00;100928.06;7395622;19;20006;-54
2022/03/21 06:19:18;;;;;;;6.70;2.85;;;;;;;1.06;100.00;100942.59;7395882;19;20018;-54
2022/03/21 06:21:44;;;;;;;15.20;5.45;;;;;;;1.06;100.00;100937.09;7399869;19;20022;-55
2022/03/21 06:24:13;;;;;;;4.00;3.72;;;;;;;1.10;100.00;100943.41;7393399;19;20455;-55
2022/03/21 06:26:43;;;;;;;7.65;5.43;;;;;;;1.12;100.00;100952.03;7395534;19;20424;-52
2022/03/21 06:29:09;;;;;;;4.03;3.67;;;;;;;1.15;100.00;100945.00;7396376;19;20019;-46
2022/03/21 06:31:38;;;;;;;2.58;2.38;;;;;;;1.13;100.00;100941.84;7395654;19;20038;-48
2022/03/21 06:34:04;;;;;;;9.95;3.90;;;;;;;1.11;100.00;100947.72;7396565;19;20019;-47
2022/03/21 06:36:30;;;;;;;5.38;4.03;;;;;;;1.13;100.00;100948.09;7398083;19;20014;-47
2022/03/21 06:38:59;;;;;;;8.27;3.78;;;;;;;1.15;100.00;100945.75;7395394;19;20010;-47
2022/03/21 06:41:25;;;;;;;10.63;4.63;;;;;;;1.19;100.00;100952.06;7398670;19;20466;-47
2022/03/21 06:43:52;;;;;;;4.47;3.88;;;;;;;1.24;100.00;100950.91;7398019;19;20074;-47
2022/03/21 06:46:18;;;;;;;8.43;4.72;;;;;;;1.26;100.00;100956.78;7397951;19;20025;-46
2022/03/21 06:48:45;;;;;;;16.30;4.10;;;;;;;1.29;100.00;100951.31;7397669;19;20459;-47
2022/03/21 06:51:11;;;;;;;14.60;6.45;;;;;;;1.36;100.00;100953.31;7398449;19;20416;-47
2022/03/21 06:53:37;;;;;;;6.70;4.93;;;;;;;1.39;100.00;100955.28;7397438;19;20014;-48
2022/03/21 06:56:03;;;;;;;7.40;3.30;;;;;;;1.43;100.00;100951.38;7400360;19;20010;-47
2022/03/21 06:58:29;;;;;;;4.60;4.13;;;;;;;1.48;100.00;100945.50;7397083;19;20014;-48
2022/03/21 07:00:54;;;;;;;16.83;4.90;;;;;;;1.52;100.00;100960.03;7396373;19;20019;-46
2022/03/21 07:03:20;;;;;;;10.38;4.75;;;;;;;1.52;100.00;100965.50;7394021;19;20010;-46
2022/03/21 07:05:46;;;;;;;5.28;4.72;;;;;;;1.56;100.00;100960.03;7396630;19;20010;-47
2022/03/21 07:08:12;;;;;;;14.35;5.88;;;;;;;1.59;100.00;100969.44;7396980;19;20023;-47
2022/03/21 07:10:41;;;;;;;5.38;3.30;;;;;;;1.63;100.00;100971.03;7395610;19;20006;-47
2022/03/21 07:13:07;;;;;;;12.18;4.68;;;;;;;1.69;100.00;100974.97;7397028;19;20010;-48
2022/03/21 07:15:34;;;;;;;11.52;6.63;;;;;;;1.73;100.00;100975.78;7397016;19;20018;-48
2022/03/21 07:17:59;;;;;;;8.25;4.20;;;;;;;1.81;100.00;100977.38;7396523;19;20018;-47
2022/03/21 07:20:28;;;;;;;8.77;4.78;;;;;;;1.88;100.00;100982.09;7395910;19;20013;-48
2022/03/21 07:22:55;;;;;;;4.72;3.20;;;;;;;1.91;100.00;100987.59;7391561;19;20018;-48
2022/03/21 07:25:21;;;;;;;5.13;4.00;;;;;;;1.94;100.00;100983.28;7395390;19;20465;-47
2022/03/21 07:27:47;;;;;;;18.30;3.13;;;;;;;1.94;100.00;100981.31;7391959;19;20030;-45
2022/03/21 07:30:13;;;;;;;11.48;4.10;;;;;;;2.00;100.00;100990.75;7392076;19;20106;-44
2022/03/21 07:32:42;;;;;;;20.92;6.65;;;;;;;2.04;100.00;100988.00;7393834;19;20018;-44
2022/03/21 07:35:09;;;;;;;8.52;6.50;;;;;;;2.18;100.00;100990.78;7388599;19;20014;-44
2022/03/21 07:37:40;;;;;;;10.68;4.78;;;;;;;2.27;100.00;100985.69;7387255;19;20078;-79
2022/03/21 07:40:06;;;;;;;5.22;1.75;;;;;;;2.34;100.00;100991.16;7386345;19;20035;-79
2022/03/21 07:42:33;;;;;;;9.48;6.93;;;;;;;2.41;100.00;100991.19;7385277;19;20011;-80
2022/03/21 07:47:43;;;;;;;10.35;5.35;;;;;;;2.50;100.00;100988.81;7390375;19;20025;-80
2022/03/21 07:50:09;;;;;;;8.93;3.67;;;;;;;2.58;100.00;100993.13;7390822;19;20025;-80
2022/03/21 07:52:34;;;;;;;10.13;5.63;;;;;;;2.67;100.00;100988.03;7391079;19;20018;-81
2022/03/21 07:55:00;;;;;;;9.27;3.90;;;;;;;2.76;100.00;100988.41;7392018;19;20472;-83
2022/03/21 07:57:29;;;;;;;5.22;4.00;;;;;;;2.85;100.00;101002.56;7388930;19;20045;-81
2022/03/21 07:59:54;;;;;;;5.78;3.78;;;;;;;2.94;100.00;101000.19;7388620;19;20014;-79
2022/03/21 08:02:21;;;;;;;6.60;4.00;;;;;;;3.05;100.00;101000.16;7391207;19;20094;-79
2022/03/21 08:04:48;;;;;;;13.57;5.63;;;;;;;3.16;100.00;100994.63;7390933;19;20052;-79
2022/03/21 08:07:14;;;;;;;9.75;4.80;;;;;;;3.30;100.00;100998.13;7389352;19;20020;-78
2022/03/21 08:09:40;;;;;;;9.75;3.85;;;;;;;3.41;100.00;101006.34;7391852;19;20035;-79
2022/03/21 08:12:06;;;;;;;7.43;3.97;;;;;;;3.57;100.00;100998.41;7394452;19;20574;-79
2022/03/21 08:14:32;;;;;;;4.53;2.72;;;;;;;3.66;100.00;100998.78;7393141;19;20037;-79
2022/03/21 08:16:59;;;;;;;5.75;2.40;;;;;;;3.79;100.00;101002.63;7390766;19;20402;-79
2022/03/21 08:19:25;;;;;;;7.25;4.55;;;;;;;3.91;100.00;101006.91;7390371;19;20022;-79
2022/03/21 08:21:54;;;;;;;10.82;3.13;;;;;;;4.06;100.00;100994.59;7388572;19;20415;-79
2022/03/21 08:24:23;;;;;;;26.02;6.85;;;;;;;4.28;100.00;101002.34;7389042;19;20022;-79
2022/03/21 08:26:49;;;;;;;11.23;5.45;;;;;;;4.44;100.00;101005.34;7391107;19;20050;-79
2022/03/21 08:29:15;;;;;;;10.88;6.05;;;;;;;4.60;100.00;100997.34;7391526;19;20014;-79
2022/03/21 08:31:41;;;;;;;21.70;7.35;;;;;;;4.88;100.00;101001.03;7395152;19;20388;-80
2022/03/21 08:34:07;;;;;;;6.55;2.92;;;;;;;5.28;100.00;101008.53;7394424;19;20485;-79
2022/03/21 08:36:33;;;;;;;10.45;3.97;;;;;;;5.52;100.00;101001.94;7390653;19;20014;-79
2022/03/21 08:38:59;;;;;;;23.08;6.13;;;;;;;5.84;100.00;100999.56;7388509;19;20034;-80
2022/03/21 08:41:25;;;;;;;23.25;6.28;;;;;;;5.97;100.00;101003.34;7390751;19;20018;-80
2022/03/21 08:43:50;;;;;;;13.95;5.22;;;;;;;6.06;100.00;101000.81;7389066;19;20036;-81
2022/03/21 08:46:16;;;;;;;18.35;5.03;;;;;;;6.30;100.00;101004.44;7390633;19;20043;-81
2022/03/21 08:51:26;;;;;;;24.75;8.85;;;;;;;6.59;100.00;101007.53;7399662;19;20374;-80
2022/03/21 08:53:52;;;;;;;19.00;4.55;;;;;;;6.64;100.00;101007.84;7397326;19;20010;-79
2022/03/21 08:56:18;;;;;;;29.20;8.13;;;;;;;6.78;100.00;101012.34;7396755;19;20038;-79
2022/03/21 08:58:43;;;;;;;22.73;6.55;;;;;;;6.82;100.00;101008.31;7394221;19;20024;-79
2022/03/21 09:01:09;;;;;;;34.45;8.80;;;;;;;6.85;100.00;101001.94;7397983;19;20082;-80
2022/03/21 09:03:35;;;;;;;25.63;7.75;;;;;;;6.88;100.00;101001.09;7396322;19;20022;-79
2022/03/21 09:06:00;;;;;;;14.82;4.03;;;;;;;6.94;100.00;101004.16;7395102;19;20383;-80
2022/03/21 09:08:26;;;;;;;8.82;5.47;;;;;;;6.95;100.00;101022.34;7396516;19;20017;-80
2022/03/21 09:10:52;;;;;;;19.38;6.88;;;;;;;7.05;100.00;101007.53;7397678;19;20019;-80
2022/03/21 09:13:18;;;;;;;23.58;8.32;;;;;;;7.15;100.00;101008.50;7397763;19;20027;-79
2022/03/21 09:15:44;;;;;;;15.50;7.38;;;;;;;7.27;100.00;101011.47;7395001;19;20015;-79
2022/03/21 09:18:10;;;;;;;20.23;6.88;;;;;;;7.43;100.00;101007.97;7394152;19;20022;-79
2022/03/21 09:20:36;;;;;;;21.50;6.65;;;;;;;7.63;100.00;101012.31;7397256;19;20125;-79
2022/03/21 09:23:02;;;;;;;26.42;6.97;;;;;;;7.89;100.00;101004.25;7392650;19;20015;-79
2022/03/21 09:25:27;;;;;;;25.02;6.70;;;;;;;8.12;100.00;100998.59;7397370;19;20019;-79
2022/03/21 09:27:53;;;;;;;19.63;6.90;;;;;;;8.49;100.00;101002.91;7393675;19;20078;-77
2022/03/21 09:30:18;;;;;;;12.88;5.13;;;;;;;8.68;100.00;100994.50;7396229;19;20034;-77
2022/03/21 09:32:44;;;;;;;12.32;5.60;;;;;;;8.72;100.00;100995.19;7396291;19;20070;-77
2022/03/21 09:35:10;;;;;;;18.77;6.60;;;;;;;8.92;100.00;100998.63;7395601;19;20026;-77
2022/03/21 09:37:36;;;;;;;19.25;6.75;;;;;;;9.00;100.00;100991.69;7393892;19;20468;-80
2022/03/21 09:40:02;;;;;;;17.05;4.80;;;;;;;9.16;100.00;100996.41;7396858;19;20031;-78
2022/03/21 09:42:28;;;;;;;18.40;5.88;;;;;;;9.38;100.00;100996.59;7394274;19;20359;-78
2022/03/21 09:44:54;;;;;;;20.92;7.85;;;;;;;9.52;100.00;100996.22;7398554;19;20011;-79
2022/03/21 09:50:12;;;;;;;27.00;6.30;;;;;;;9.78;100.00;100989.50;7394338;19;20046;-78
2022/03/21 09:52:38;;;;;;;12.13;4.70;;;;;;;9.99;100.00;100982.50;7391987;19;20371;-78
2022/03/21 09:55:07;;;;;;;13.25;6.13;;;;;;;10.07;100.00;100981.81;7395727;19;20021;-78
2022/03/21 09:57:33;;;;;;;9.43;4.90;;;;;;;10.24;100.00;100974.97;7392313;19;20052;-78
2022/03/21 09:59:59;;;;;;;23.42;6.63;;;;;;;10.43;100.00;100984.31;7393534;19;20350;-78
2022/03/21 10:02:24;;;;;;;24.92;7.47;;;;;;;10.61;100.00;100979.72;7398433;19;20011;-78
2022/03/21 10:04:52;;;;;;;22.45;5.68;;;;;;;10.80;100.00;100988.25;7396301;19;20018;-79
2022/03/21 10:07:28;;;;;;;15.45;5.80;;;;;;;10.89;100.00;100985.56;7391781;19;20082;-78
2022/03/21 10:10:08;;;;;;;13.07;5.30;;;;;;;11.02;100.00;100975.16;7393655;19;20456;-78
2022/03/21 10:12:35;;;;;;;14.93;4.88;;;;;;;11.18;100.00;100974.97;7395798;19;20031;-78
2022/03/21 10:15:04;;;;;;;10.15;5.45;;;;;;;11.20;100.00;100975.28;7392972;19;20528;-78
2022/03/21 10:17:30;;;;;;;18.58;6.53;;;;;;;11.30;100.00;100974.91;7392042;19;20404;-78
2022/03/21 10:19:55;;;;;;;13.80;5.72;;;;;;;11.46;100.00;100976.72;7393391;19;20003;-80
2022/03/21 10:22:37;;;;;;;8.38;4.93;;;;;;;11.55;100.00;100974.00;7398098;19;20038;-84
2022/03/21 10:25:06;;;;;;;22.38;6.20;;;;;;;11.60;100.00;100981.03;7394281;19;20026;-79
2022/03/21 10:27:34;;;;;;;24.30;5.53;;;;;;;11.62;100.00;100973.75;7390077;19;20042;-79
2022/03/21 10:30:07;;;;;;;10.30;4.95;;;;;;;11.63;100.00;100978.09;7395078;19;20018;-79
2022/03/21 10:32:44;;;;;;;8.40;3.75;;;;;;;11.58;100.00;100975.91;7393342;19;20078;-79
2022/03/21 10:35:15;;;;;;;15.73;4.80;;;;;;;11.59;100.00;100980.22;7395198;19;20037;-80
2022/03/21 10:37:41;;;;;;;;;;;;;;;11.72;100.00;100978.19;7392936;19;20018;-79
2022/03/21 10:40:24;;;;;;;13.00;4.40;;;;;;;11.90;100.00;100972.72;7390323;19;19914;-79
2022/03/21 10:42:56;;;;;;;10.98;4.22;;;;;;;12.09;100.00;100979.94;7391259;19;20033;-79
2022/03/21 10:45:46;;;;;;;17.50;5.18;;;;;;;12.28;100.00;100980.78;7390985;19;20018;-79
2022/03/21 10:48:19;;;;;;;11.68;3.83;;;;;;;12.34;100.00;100983.75;7396536;19;20018;-79
2022/03/21 10:50:47;;;;;;;16.73;3.92;;;;;;;12.39;100.00;100985.97;7395560;19;20412;-79
2022/03/21 10:53:23;;;;;;;18.50;5.57;;;;;;;12.51;100.00;100982.25;7394495;19;20027;-81
2022/03/21 10:55:58;;;;;;;13.15;5.30;;;;;;;12.75;100.00;100980.47;7395570;19;20019;-80
2022/03/21 10:58:56;;;;;;;11.65;5.75;;;;;;;13.16;100.00;100979.13;7393889;19;20046;-80
2022/03/21 11:01:26;;;;;;;12.10;4.45;;;;;;;13.27;98.80;100976.63;7394430;19;20457;-80
2022/03/21 11:03:59;;;;;;;7.00;4.45;;;;;;;13.31;98.72;100971.66;7391885;19;20105;-79
2022/03/21 11:06:29;;;;;;;11.32;4.82;;;;;;;13.42;95.38;100969.16;7391650;19;20031;-80
2022/03/21 11:08:55;;;;;;;7.28;4.25;;;;;;;13.42;96.39;100974.75;7391862;19;20019;-80
2022/03/21 11:11:22;;;;;;;8.52;4.70;;;;;;;13.45;93.63;100971.78;7390509;19;20026;-80
2022/03/21 11:13:49;;;;;;;16.00;4.47;;;;;;;13.40;93.31;100975.25;7391572;19;20024;-80
2022/03/21 11:16:19;;;;;;;25.23;6.85;;;;;;;13.31;93.36;100975.25;7391095;19;20501;-80
2022/03/21 11:18:51;;;;;;;14.70;5.53;;;;;;;13.19;91.32;100975.41;7393397;19;20024;-79
2022/03/21 11:21:18;;;;;;;19.60;6.05;;;;;;;13.16;91.37;100977.09;7394609;19;20026;-80
2022/03/21 11:23:44;;;;;;;6.63;3.65;;;;;;;13.09;90.38;100966.22;7389164;19;20014;-80
2022/03/21 11:26:21;;;;;;;11.60;4.97;;;;;;;13.02;88.85;100972.09;7394287;19;20019;-80
2022/03/21 11:29:15;;;;;;;7.40;4.13;;;;;;;12.99;89.71;100972.25;7393295;19;20023;-80
2022/03/21 11:32:21;;;;;;;23.08;8.45;;;;;;;13.09;88.31;100971.81;7394351;19;20014;-79
2022/03/21 11:35:13;;;;;;;15.15;5.50;;;;;;;13.08;86.43;100975.84;7393242;19;20010;-80
2022/03/21 11:37:38;;;;;;;10.88;4.90;;;;;;;13.26;89.66;100970.25;7389017;19;20015;-79
2022/03/21 11:40:23;;;;;;;7.28;3.78;;;;;;;13.53;87.60;100978.66;7389339;19;20019;-79
2022/03/21 11:42:50;;;;;;;16.92;4.35;;;;;;;13.66;86.44;100976.41;7389700;19;20019;-80
2022/03/21 11:45:27;;;;;;;13.25;4.10;;;;;;;13.67;86.33;100972.38;7390613;19;20472;-80
2022/03/21 11:48:17;;;;;;;17.67;6.45;;;;;;;13.83;87.81;100974.06;7390368;19;20556;-80
2022/03/21 11:50:44;;;;;;;16.17;4.40;;;;;;;13.99;86.75;100967.34;7393441;19;20018;-80
2022/03/21 11:53:12;;;;;;;9.48;3.75;;;;;;;14.19;85.49;100971.13;7392918;19;20014;-80
2022/03/21 11:55:41;;;;;;;10.68;4.57;;;;;;;14.33;84.79;100964.09;7403471;19;20029;-79
2022/03/21 11:58:22;;;;;;;9.27;4.90;;;;;;;14.34;81.68;100966.41;7395317;19;20015;-80
2022/03/21 12:01:01;;;;;;;10.77;4.40;;;;;;;14.38;80.56;100974.66;7392691;19;20018;-80
2022/03/21 12:03:27;;;;;;;13.15;5.22;;;;;;;14.46;77.84;100964.66;7391730;19;20018;-80
2022/03/21 12:05:52;;;;;;;9.23;4.07;;;;;;;14.59;78.50;100962.41;7389711;19;20017;-80
2022/03/21 12:08:31;;;;;;;16.42;5.20;;;;;;;14.70;79.13;100964.69;7392157;19;20018;-79
2022/03/21 12:10:57;;;;;;;13.40;3.97;;;;;;;14.76;76.99;100969.16;7391594;19;20074;-80
2022/03/21 12:13:22;;;;;;;12.48;5.20;;;;;;;14.70;77.73;100975.88;7390309;19;20486;-81
2022/03/21 12:15:51;;;;;;;8.63;4.40;;;;;;;14.79;77.69;100970.97;7389267;19;20501;-80
2022/03/21 12:18:19;;;;;;;8.27;4.15;;;;;;;14.82;77.59;100975.66;7389377;19;20493;-82
2022/03/21 12:20:46;;;;;;;8.52;4.07;;;;;;;14.73;77.48;100972.91;7390232;19;20026;-81
2022/03/21 12:23:18;;;;;;;11.32;5.53;;;;;;;14.65;77.60;100977.31;7402086;19;20014;-82
2022/03/21 12:34:41;;;;;;;19.13;6.15;;;;;;;14.66;76.49;100973.25;7406333;19;20084;-52
2022/03/21 12:37:09;;;;;;;10.98;4.15;;;;;;;14.56;77.56;100968.16;7404879;19;20039;-54
2022/03/21 12:39:38;;;;;;;11.18;5.15;;;;;;;14.59;77.32;100973.63;7406946;19;20027;-53
2022/03/21 12:42:03;;;;;;;7.30;3.70;;;;;;;14.68;78.04;100970.78;7410131;19;20027;-52
2022/03/21 12:44:29;;;;;;;5.15;3.38;;;;;;;14.76;76.94;100976.78;7405018;19;20504;-52
2022/03/21 12:46:58;;;;;;;9.68;4.90;;;;;;;14.76;76.02;100971.94;7406212;19;20466;-52
2022/03/21 12:49:45;;;;;;;;;;;;;;;14.65;75.69;100968.91;7408058;19;20026;-53
2022/03/21 12:52:10;;;;;;;11.80;5.13;;;;;;;14.53;75.87;100969.91;7408542;19;19952;-52
2022/03/21 12:54:46;;;;;;;15.38;4.55;;;;;;;14.59;75.54;100968.00;7405825;19;20007;-52
2022/03/21 12:57:11;;;;;;;8.93;3.97;;;;;;;14.57;75.76;100969.75;7406066;19;20021;-52
2022/03/21 12:59:38;;;;;;;8.40;3.90;;;;;;;14.63;74.41;100968.59;7406295;19;20018;-52
2022/03/21 13:02:04;;;;;;;13.52;4.75;;;;;;;14.70;74.16;100973.88;7408664;19;20497;-52
2022/03/21 13:10:36;;;;;;;10.43;4.05;;;;;;;14.59;74.73;100962.41;7403671;19;20010;-52
2022/03/21 13:13:04;;;;;;;14.20;5.97;;;;;;;14.68;74.79;100958.78;7404908;19;20018;-47
2022/03/21 13:15:31;;;;;;;20.50;4.38;;;;;;;14.59;75.96;100967.22;7405693;19;20398;-47
2022/03/21 13:18:01;;;;;;;8.18;3.85;;;;;;;14.59;77.11;100968.00;7405925;19;20022;-47
2022/03/21 13:20:40;;;;;;;13.68;4.10;;;;;;;14.53;75.59;100969.91;7407719;19;20036;-47
2022/03/21 13:23:06;;;;;;;8.77;3.33;;;;;;;14.50;76.65;100962.47;7402863;19;20019;-47
2022/03/21 13:25:36;;;;;;;11.02;4.95;;;;;;;14.43;76.07;100971.19;7408189;19;20401;-49
2022/03/21 13:28:19;;;;;;;12.35;4.88;;;;;;;14.41;77.95;100973.72;7406563;19;20043;-46
2022/03/21 13:30:58;;;;;;;12.25;4.03;;;;;;;14.40;75.84;100974.97;7404318;19;20033;-46
2022/03/21 13:33:27;;;;;;;9.82;4.03;;;;;;;14.45;76.80;100974.31;7404764;19;20014;-48
2022/03/21 13:35:54;;;;;;;12.50;4.22;;;;;;;14.44;76.78;100961.56;7397681;19;20018;-49
2022/03/21 13:38:26;;;;;;;11.27;4.57;;;;;;;14.47;77.37;100962.63;7398242;19;20112;-48
2022/03/21 13:40:53;;;;;;;14.57;5.13;;;;;;;14.53;76.65;100967.09;7400309;19;20077;-48
2022/03/21 13:43:26;;;;;;;7.25;3.47;;;;;;;14.53;75.63;100964.28;7398291;19;20040;-49
2022/03/21 13:45:52;;;;;;;13.38;4.13;;;;;;;14.46;75.89;100953.44;7398197;19;20015;-48
2022/03/21 13:48:41;;;;;;;5.32;4.22;;;;;;;14.54;79.71;100959.47;7396379;19;20399;-48
2022/03/21 13:51:17;;;;;;;13.85;5.68;;;;;;;14.66;79.33;100953.63;7396889;19;20372;-48
2022/03/21 13:53:43;;;;;;;9.85;3.65;;;;;;;14.83;78.17;100949.16;7398221;19;20007;-46
2022/03/21 13:56:08;;;;;;;11.35;4.97;;;;;;;14.83;77.98;100949.16;7400946;19;20014;-48
2022/03/21 13:58:36;;;;;;;12.85;6.00;;;;;;;14.84;77.76;100941.50;7400374;19;20019;-47
2022/03/21 14:01:02;;;;;;;9.60;4.00;;;;;;;14.97;78.42;100940.00;7399161;19;20092;-47
2022/03/21 14:03:36;;;;;;;15.05;5.63;;;;;;;15.04;76.26;100947.28;7397900;19;20022;-47
2022/03/21 14:06:04;;;;;;;15.05;4.78;;;;;;;15.07;76.68;100940.72;7396429;19;20015;-47
2022/03/21 14:08:31;;;;;;;9.15;4.22;;;;;;;15.05;75.91;100938.38;7396421;19;20451;-47